createdAt,value
2017-11-27T00:00:33.672Z,65.60
2017-11-27T00:03:01.236Z,65.40
2017-11-27T00:05:28.729Z,65.60
2017-11-27T00:07:56.214Z,65.60
2017-11-27T00:10:23.710Z,65.50
2017-11-27T00:12:51.195Z,65.20
2017-11-27T00:15:18.682Z,65.30
2017-11-27T00:17:46.927Z,65.20
2017-11-27T00:20:14.476Z,65.10
2017-11-27T00:22:41.959Z,64.70
2017-11-27T00:25:09.502Z,64.70
2017-11-27T00:27:36.966Z,65.00
2017-11-27T00:30:04.471Z,64.80
2017-11-27T00:32:31.973Z,64.30
2017-11-27T00:34:59.458Z,64.30
2017-11-27T00:37:26.941Z,64.30
2017-11-27T00:39:54.427Z,64.40
2017-11-27T00:42:21.926Z,64.70
2017-11-27T00:44:49.407Z,64.90
2017-11-27T00:47:16.952Z,64.60
2017-11-27T00:49:45.181Z,64.60
2017-11-27T00:52:12.671Z,64.50
2017-11-27T00:54:40.176Z,65.20
2017-11-27T00:57:07.655Z,65.10
2017-11-27T00:59:35.149Z,65.30
2017-11-27T01:02:02.636Z,65.30
2017-11-27T01:04:30.303Z,65.60
2017-11-27T01:06:58.542Z,65.50
2017-11-27T01:09:26.024Z,65.40
2017-11-27T01:11:54.276Z,64.60
2017-11-27T01:14:21.753Z,64.60
2017-11-27T01:16:49.279Z,64.70
2017-11-27T01:19:16.754Z,65.00
2017-11-27T01:21:44.253Z,65.50
2017-11-27T01:24:11.730Z,66.60
2017-11-27T01:26:40.021Z,68.40
2017-11-27T01:29:07.518Z,68.40
2017-11-27T01:31:35.013Z,69.70
2017-11-27T01:34:02.494Z,70.30
2017-11-27T01:36:30.969Z,71.20
2017-11-27T01:38:58.483Z,71.20
2017-11-27T01:41:25.978Z,71.60
2017-11-27T01:43:53.464Z,71.90
2017-11-27T01:46:20.972Z,72.00
2017-11-27T01:48:48.471Z,72.00
2017-11-27T01:51:15.972Z,72.00
2017-11-27T01:53:44.227Z,71.80
2017-11-27T01:56:11.744Z,71.80
2017-11-27T01:58:39.278Z,71.50
2017-11-27T02:01:06.804Z,71.50
2017-11-27T02:03:34.287Z,71.30
2017-11-27T02:06:02.441Z,70.90
2017-11-27T02:08:29.917Z,70.70
2017-11-27T02:10:58.211Z,71.20
2017-11-27T02:13:25.730Z,71.10
2017-11-27T02:15:54.016Z,71.30
2017-11-27T02:18:22.293Z,70.70
2017-11-27T02:20:49.770Z,70.70
2017-11-27T02:23:17.285Z,70.80
2017-11-27T02:25:44.764Z,70.40
2017-11-27T02:28:12.251Z,70.40
2017-11-27T02:30:39.760Z,70.40
2017-11-27T02:33:08.050Z,69.90
2017-11-27T02:35:35.542Z,69.80
2017-11-27T02:38:03.041Z,69.70
2017-11-27T02:40:32.030Z,69.70
2017-11-27T02:42:59.526Z,69.60
2017-11-27T02:45:27.024Z,69.50
2017-11-27T02:47:54.532Z,69.10
2017-11-27T02:50:22.030Z,69.10
2017-11-27T02:52:49.578Z,68.90
2017-11-27T02:55:17.081Z,68.70
2017-11-27T02:57:44.559Z,68.50
2017-11-27T03:00:12.048Z,69.00
2017-11-27T03:02:40.310Z,68.50
2017-11-27T03:05:07.989Z,68.40
2017-11-27T03:07:35.489Z,68.50
2017-11-27T03:10:02.980Z,68.80
2017-11-27T03:12:31.302Z,68.00
2017-11-27T03:14:58.787Z,68.10
2017-11-27T03:17:27.166Z,68.00
2017-11-27T03:19:56.170Z,68.30
2017-11-27T03:22:23.685Z,68.30
2017-11-27T03:24:51.936Z,67.40
2017-11-27T03:27:19.421Z,67.70
2017-11-27T03:29:46.932Z,67.60
2017-11-27T03:32:14.399Z,67.30
2017-11-27T03:34:41.930Z,67.10
2017-11-27T03:37:09.405Z,67.00
2017-11-27T03:39:36.898Z,67.60
2017-11-27T03:42:04.400Z,67.30
2017-11-27T03:44:31.877Z,67.10
2017-11-27T03:46:59.357Z,67.20
2017-11-27T03:49:27.627Z,66.60
2017-11-27T03:51:55.096Z,66.60
2017-11-27T03:54:23.353Z,67.10
2017-11-27T03:56:50.827Z,67.10
2017-11-27T03:59:18.337Z,67.60
2017-11-27T04:01:45.858Z,67.10
2017-11-27T04:04:13.334Z,66.90
2017-11-27T04:06:40.822Z,67.20
2017-11-27T04:09:08.311Z,67.10
2017-11-27T04:11:35.918Z,66.90
2017-11-27T04:14:04.168Z,66.60
2017-11-27T04:16:32.277Z,66.60
2017-11-27T04:18:59.778Z,66.70
2017-11-27T04:21:27.245Z,66.50
2017-11-27T04:23:55.502Z,65.80
2017-11-27T04:26:23.027Z,65.80
2017-11-27T04:28:50.529Z,66.10
2017-11-27T04:31:18.794Z,65.60
2017-11-27T04:33:46.288Z,65.50
2017-11-27T04:36:14.537Z,65.10
2017-11-27T04:38:42.051Z,65.10
2017-11-27T04:41:09.657Z,65.10
2017-11-27T04:43:37.135Z,65.20
2017-11-27T04:46:04.644Z,65.40
2017-11-27T04:48:32.870Z,64.90
2017-11-27T04:51:00.345Z,65.00
2017-11-27T04:53:27.840Z,64.60
2017-11-27T04:55:55.348Z,64.30
2017-11-27T04:58:22.833Z,64.60
2017-11-27T05:00:50.329Z,64.20
2017-11-27T05:03:17.803Z,64.10
2017-11-27T05:05:45.264Z,64.40
2017-11-27T05:08:13.764Z,64.10
2017-11-27T05:10:42.047Z,63.90
2017-11-27T05:13:09.521Z,64.00
2017-11-27T05:15:37.015Z,64.20
2017-11-27T05:18:04.495Z,63.80
2017-11-27T05:20:32.011Z,63.70
2017-11-27T05:22:59.569Z,64.50
2017-11-27T05:25:27.046Z,63.80
2017-11-27T05:27:55.284Z,63.00
2017-11-27T05:30:22.779Z,63.00
2017-11-27T05:32:51.053Z,63.60
2017-11-27T05:35:18.547Z,63.60
2017-11-27T05:37:46.152Z,63.20
2017-11-27T05:40:14.395Z,62.90
2017-11-27T05:42:41.970Z,63.00
2017-11-27T05:45:09.475Z,62.40
2017-11-27T05:47:37.035Z,62.80
2017-11-27T05:50:04.535Z,62.60
2017-11-27T05:52:32.036Z,62.50
2017-11-27T05:54:59.561Z,62.40
2017-11-27T05:57:27.818Z,61.80
2017-11-27T05:59:55.376Z,61.80
2017-11-27T06:02:22.876Z,61.70
2017-11-27T06:04:51.335Z,62.20
2017-11-27T06:07:18.843Z,62.20
2017-11-27T06:09:46.361Z,62.00
2017-11-27T06:12:14.639Z,62.50
2017-11-27T06:14:42.144Z,62.60
2017-11-27T06:17:09.664Z,62.70
2017-11-27T06:19:37.144Z,62.50
2017-11-27T06:22:05.414Z,62.40
2017-11-27T06:24:32.942Z,62.40
2017-11-27T06:27:00.531Z,62.20
2017-11-27T06:29:28.151Z,61.90
2017-11-27T06:31:55.685Z,62.00
2017-11-27T06:34:23.936Z,62.10
2017-11-27T06:36:51.438Z,62.10
2017-11-27T06:39:18.955Z,61.60
2017-11-27T06:41:46.502Z,61.60
2017-11-27T06:44:14.103Z,61.20
2017-11-27T06:46:41.604Z,62.00
2017-11-27T06:49:09.107Z,61.50
2017-11-27T06:51:36.609Z,61.80
2017-11-27T06:54:04.226Z,61.50
2017-11-27T06:56:32.466Z,60.70
2017-11-27T06:59:00.017Z,60.70
2017-11-27T07:01:28.333Z,60.80
2017-11-27T07:03:55.865Z,60.90
2017-11-27T07:06:23.504Z,60.30
2017-11-27T07:08:51.007Z,60.60
2017-11-27T07:11:19.284Z,60.10
2017-11-27T07:13:47.625Z,60.20
2017-11-27T07:16:15.163Z,60.70
2017-11-27T07:18:42.639Z,60.80
2017-11-27T07:21:10.160Z,60.80
2017-11-27T07:23:37.763Z,60.90
2017-11-27T07:26:06.040Z,59.70
2017-11-27T07:28:33.579Z,59.70
2017-11-27T07:31:01.072Z,59.20
2017-11-27T07:33:28.567Z,59.10
2017-11-27T07:35:56.094Z,58.90
2017-11-27T07:38:29.180Z,58.30
2017-11-27T07:40:56.740Z,58.10
2017-11-27T07:43:24.265Z,57.90
2017-11-27T07:45:51.792Z,58.30
2017-11-27T07:48:19.345Z,58.60
2017-11-27T07:50:46.848Z,58.60
2017-11-27T07:53:14.448Z,59.00
2017-11-27T07:55:41.954Z,58.90
2017-11-27T07:58:10.269Z,58.80
2017-11-27T08:00:38.527Z,58.80
2017-11-27T08:03:06.027Z,58.80
2017-11-27T08:05:33.511Z,58.80
2017-11-27T08:08:01.033Z,58.90
2017-11-27T08:10:29.306Z,59.20
2017-11-27T08:12:56.773Z,59.20
2017-11-27T08:15:24.269Z,59.30
2017-11-27T08:17:51.756Z,58.60
2017-11-27T08:20:19.314Z,57.40
2017-11-27T08:22:46.829Z,56.70
2017-11-27T08:25:14.398Z,57.10
2017-11-27T08:27:42.643Z,56.70
2017-11-27T08:30:10.138Z,56.80
2017-11-27T08:32:38.390Z,56.70
2017-11-27T08:35:05.875Z,56.70
2017-11-27T08:37:33.370Z,56.70
2017-11-27T08:40:01.812Z,56.80
2017-11-27T08:42:29.317Z,56.80
2017-11-27T08:44:57.571Z,57.00
2017-11-27T08:47:25.123Z,57.00
2017-11-27T08:49:52.639Z,56.50
2017-11-27T08:52:20.907Z,56.40
2017-11-27T08:54:49.199Z,56.20
2017-11-27T08:57:17.637Z,56.20
2017-11-27T08:59:45.182Z,56.20
2017-11-27T09:02:12.650Z,56.20
2017-11-27T09:04:40.922Z,56.20
2017-11-27T09:07:09.183Z,56.20
2017-11-27T09:09:36.665Z,56.30
2017-11-27T09:12:04.283Z,56.10
2017-11-27T09:14:32.611Z,55.70
2017-11-27T09:17:00.084Z,55.60
2017-11-27T09:19:28.452Z,55.10
2017-11-27T09:21:55.970Z,55.10
2017-11-27T09:24:24.242Z,55.00
2017-11-27T09:26:51.747Z,55.10
2017-11-27T09:29:20.147Z,53.90
2017-11-27T09:31:47.623Z,53.90
2017-11-27T09:34:15.116Z,53.60
2017-11-27T09:36:42.662Z,53.60
2017-11-27T09:39:10.916Z,53.50
2017-11-27T09:41:38.908Z,53.50
2017-11-27T09:44:06.407Z,53.40
2017-11-27T09:46:34.022Z,53.10
2017-11-27T09:49:02.287Z,50.60
2017-11-27T09:51:29.805Z,50.40
2017-11-27T09:53:58.090Z,46.90
2017-11-27T09:56:25.645Z,47.00
2017-11-27T09:58:54.041Z,43.30
2017-11-27T10:01:21.799Z,43.30
2017-11-27T10:03:49.304Z,43.10
2017-11-27T10:06:17.926Z,43.20
2017-11-27T10:08:45.442Z,42.30
2017-11-27T10:11:13.700Z,42.40
2017-11-27T10:13:41.293Z,42.40
2017-11-27T10:16:08.814Z,41.70
2017-11-27T10:18:37.066Z,40.50
2017-11-27T10:21:05.512Z,40.50
2017-11-27T10:23:33.010Z,40.40
2017-11-27T10:26:00.507Z,40.80
2017-11-27T10:28:28.908Z,41.70
2017-11-27T10:30:57.212Z,43.80
2017-11-27T10:33:25.569Z,44.20
2017-11-27T10:35:53.080Z,44.20
2017-11-27T10:38:20.706Z,43.50
2017-11-27T10:40:48.950Z,45.20
2017-11-27T10:43:16.652Z,45.20
2017-11-27T10:45:44.121Z,43.90
2017-11-27T10:48:11.666Z,43.40
2017-11-27T10:50:39.150Z,43.70
2017-11-27T10:53:07.396Z,44.60
2017-11-27T10:55:34.895Z,44.60
2017-11-27T10:58:02.389Z,45.20
2017-11-27T11:00:35.794Z,45.40
2017-11-27T11:03:04.132Z,46.80
2017-11-27T11:05:31.618Z,46.80
2017-11-27T11:07:59.122Z,46.70
2017-11-27T11:10:26.603Z,47.30
2017-11-27T11:12:54.168Z,47.80
2017-11-27T11:15:21.977Z,47.50
2017-11-27T11:17:49.482Z,47.80
2017-11-27T11:20:17.016Z,47.80
2017-11-27T11:22:44.525Z,48.40
2017-11-27T11:25:12.774Z,49.10
2017-11-27T11:27:40.271Z,49.10
2017-11-27T11:30:07.803Z,49.30
2017-11-27T11:32:35.281Z,49.70
2017-11-27T11:35:02.760Z,49.90
2017-11-27T11:37:30.372Z,49.10
2017-11-27T11:39:57.846Z,49.10
2017-11-27T11:42:25.363Z,49.10
2017-11-27T11:44:52.864Z,48.70
2017-11-27T11:47:20.382Z,49.10
2017-11-27T11:49:48.625Z,48.60
2017-11-27T11:52:16.972Z,48.20
2017-11-27T11:54:44.452Z,48.20
2017-11-27T11:57:11.949Z,48.60
2017-11-27T11:59:39.469Z,49.10
2017-11-27T12:02:08.138Z,48.90
2017-11-27T12:04:35.639Z,48.70
2017-11-27T12:07:03.209Z,48.90
2017-11-27T12:09:30.695Z,48.70
2017-11-27T12:11:58.969Z,48.70
2017-11-27T12:14:27.245Z,48.80
2017-11-27T12:16:55.499Z,49.10
2017-11-27T12:19:23.004Z,49.10
2017-11-27T12:21:51.612Z,48.20
2017-11-27T12:24:19.258Z,48.50
2017-11-27T12:26:46.748Z,47.80
2017-11-27T12:29:14.477Z,48.70
2017-11-27T12:31:41.970Z,48.10
2017-11-27T12:34:09.485Z,48.30
2017-11-27T12:36:37.865Z,47.80
2017-11-27T12:39:05.355Z,47.80
2017-11-27T12:41:32.879Z,47.90
2017-11-27T12:44:00.365Z,48.20
2017-11-27T12:46:27.873Z,48.00
2017-11-27T12:48:55.505Z,47.90
2017-11-27T12:51:23.243Z,47.80
2017-11-27T12:53:50.740Z,48.30
2017-11-27T12:56:18.239Z,48.70
2017-11-27T12:58:45.739Z,48.50
2017-11-27T13:01:14.142Z,48.10
2017-11-27T13:03:41.647Z,48.20
2017-11-27T13:06:09.987Z,47.00
2017-11-27T13:08:38.224Z,47.30
2017-11-27T13:11:05.767Z,47.40
2017-11-27T13:13:34.026Z,47.60
2017-11-27T13:16:01.526Z,47.60
2017-11-27T13:18:29.021Z,47.00
2017-11-27T13:20:56.904Z,46.20
2017-11-27T13:23:24.423Z,45.80
2017-11-27T13:25:51.916Z,45.90
2017-11-27T13:28:19.406Z,45.30
2017-11-27T13:30:46.917Z,45.00
2017-11-27T13:33:15.220Z,44.40
2017-11-27T13:35:42.745Z,44.50
2017-11-27T13:38:10.271Z,43.70
2017-11-27T13:40:37.750Z,43.90
2017-11-27T13:43:05.324Z,43.70
2017-11-27T13:45:33.584Z,43.30
2017-11-27T13:48:02.488Z,43.50
2017-11-27T13:50:30.027Z,43.50
2017-11-27T13:52:57.532Z,42.60
2017-11-27T13:55:25.796Z,42.90
2017-11-27T13:57:53.303Z,42.90
2017-11-27T14:00:20.789Z,42.80
2017-11-27T14:02:48.298Z,42.90
2017-11-27T14:05:15.789Z,43.20
2017-11-27T14:07:43.315Z,42.80
2017-11-27T14:10:11.595Z,43.20
2017-11-27T14:12:39.128Z,43.30
2017-11-27T14:15:06.794Z,43.70
2017-11-27T14:17:35.065Z,44.00
2017-11-27T14:20:02.549Z,44.60
2017-11-27T14:22:30.072Z,43.00
2017-11-27T14:24:57.568Z,42.90
2017-11-27T14:27:25.046Z,43.20
2017-11-27T14:29:52.538Z,43.70
2017-11-27T14:32:20.916Z,43.50
2017-11-27T14:34:48.808Z,43.50
2017-11-27T14:37:16.312Z,43.00
2017-11-27T14:39:43.837Z,43.30
2017-11-27T14:42:13.190Z,44.10
2017-11-27T14:44:41.451Z,43.40
2017-11-27T14:47:08.997Z,43.40
2017-11-27T14:49:36.530Z,43.50
2017-11-27T14:52:05.743Z,43.60
2017-11-27T14:54:33.247Z,43.50
2017-11-27T14:57:00.736Z,43.90
2017-11-27T14:59:28.248Z,43.70
2017-11-27T15:01:56.510Z,43.90
2017-11-27T15:04:24.024Z,43.90
2017-11-27T15:06:51.552Z,43.80
2017-11-27T15:09:19.066Z,44.00
2017-11-27T15:11:46.558Z,43.80
2017-11-27T15:14:14.222Z,44.20
2017-11-27T15:16:41.728Z,44.70
2017-11-27T15:19:09.210Z,44.00
2017-11-27T15:21:36.714Z,44.10
2017-11-27T15:24:04.974Z,44.20
2017-11-27T15:26:33.549Z,44.40
2017-11-27T15:29:01.174Z,44.50
2017-11-27T15:31:28.702Z,44.60
2017-11-27T15:33:56.195Z,44.60
2017-11-27T15:36:23.997Z,44.50
2017-11-27T15:38:51.538Z,44.30
2017-11-27T15:41:19.050Z,44.50
2017-11-27T15:43:47.518Z,44.40
2017-11-27T15:46:14.988Z,44.40
2017-11-27T15:48:42.491Z,43.70
2017-11-27T15:51:10.008Z,43.90
2017-11-27T15:53:37.561Z,44.40
2017-11-27T15:56:05.073Z,44.00
2017-11-27T15:58:33.015Z,43.90
2017-11-27T16:01:00.653Z,43.30
2017-11-27T16:03:28.153Z,43.60
2017-11-27T16:05:55.680Z,43.70
2017-11-27T16:08:24.589Z,43.50
2017-11-27T16:10:52.139Z,43.50
2017-11-27T16:13:19.653Z,43.60
2017-11-27T16:15:47.953Z,43.50
2017-11-27T16:18:15.453Z,43.70
2017-11-27T16:20:43.140Z,43.50
2017-11-27T16:23:10.624Z,43.30
2017-11-27T16:25:39.029Z,43.40
2017-11-27T16:28:06.541Z,43.50
2017-11-27T16:30:34.051Z,43.30
2017-11-27T16:33:01.583Z,43.40
2017-11-27T16:35:29.230Z,43.30
2017-11-27T16:37:57.497Z,42.90
2017-11-27T16:40:25.197Z,42.80
2017-11-27T16:42:52.752Z,43.00
2017-11-27T16:45:20.279Z,42.90
2017-11-27T16:47:47.789Z,43.00
2017-11-27T16:50:16.069Z,42.50
2017-11-27T16:52:43.577Z,42.60
2017-11-27T16:55:11.093Z,43.40
2017-11-27T16:57:39.543Z,42.50
2017-11-27T17:00:07.117Z,43.00
2017-11-27T17:02:34.674Z,42.70
2017-11-27T17:05:02.298Z,42.20
2017-11-27T17:07:29.806Z,42.30
2017-11-27T17:09:58.303Z,42.50
2017-11-27T17:12:25.798Z,42.60
2017-11-27T17:14:53.284Z,42.70
2017-11-27T17:17:20.812Z,43.10
2017-11-27T17:19:48.359Z,42.80
2017-11-27T17:22:16.015Z,43.20
2017-11-27T17:24:44.317Z,42.90
2017-11-27T17:27:11.788Z,42.50
2017-11-27T17:29:39.284Z,43.00
2017-11-27T17:32:07.803Z,42.90
2017-11-27T17:34:35.272Z,42.90
2017-11-27T17:37:02.751Z,43.00
2017-11-27T17:39:30.225Z,43.10
2017-11-27T17:41:58.478Z,43.30
2017-11-27T17:44:26.087Z,43.20
2017-11-27T17:46:53.568Z,43.50
2017-11-27T17:49:21.037Z,43.70
2017-11-27T17:51:48.528Z,43.40
2017-11-27T17:54:16.834Z,43.80
2017-11-27T17:56:44.422Z,43.80
2017-11-27T17:59:11.899Z,43.70
2017-11-27T18:01:39.368Z,43.80
2017-11-27T18:04:06.855Z,44.00
2017-11-27T18:06:34.370Z,44.70
2017-11-27T18:09:01.853Z,44.60
2017-11-27T18:11:30.610Z,45.20
2017-11-27T18:13:58.090Z,45.20
2017-11-27T18:16:26.339Z,45.10
2017-11-27T18:18:53.828Z,45.10
2017-11-27T18:21:21.321Z,45.90
2017-11-27T18:23:48.809Z,45.80
2017-11-27T18:26:16.294Z,45.90
2017-11-27T18:28:44.627Z,46.10
2017-11-27T18:31:12.125Z,46.10
2017-11-27T18:33:39.689Z,47.10
2017-11-27T18:36:07.932Z,46.90
2017-11-27T18:38:35.433Z,46.90
2017-11-27T18:41:02.967Z,47.00
2017-11-27T18:43:31.201Z,47.40
2017-11-27T18:45:58.745Z,47.30
2017-11-27T18:48:26.232Z,47.70
2017-11-27T18:50:53.726Z,47.90
2017-11-27T18:53:21.219Z,48.20
2017-11-27T18:55:48.676Z,48.50
2017-11-27T18:58:17.251Z,48.80
2017-11-27T19:00:44.724Z,48.90
2017-11-27T19:03:12.204Z,49.10
2017-11-27T19:05:39.710Z,49.00
2017-11-27T19:08:07.211Z,49.60
2017-11-27T19:10:34.720Z,49.90
2017-11-27T19:13:02.534Z,49.30
2017-11-27T19:15:30.034Z,49.20
2017-11-27T19:17:57.555Z,49.20
2017-11-27T19:20:25.042Z,49.30
2017-11-27T19:22:52.513Z,49.30
2017-11-27T19:28:16.761Z,49.50
2017-11-27T19:30:44.268Z,49.30
2017-11-27T19:33:11.789Z,48.90
2017-11-27T19:35:39.374Z,49.40
2017-11-27T19:38:06.873Z,49.10
2017-11-27T19:40:34.443Z,48.90
2017-11-27T19:43:01.951Z,49.20
2017-11-27T19:45:29.460Z,49.20
2017-11-27T19:47:56.951Z,49.50
2017-11-27T19:50:24.451Z,49.10
2017-11-27T19:52:52.701Z,49.50
2017-11-27T19:55:20.229Z,49.60
2017-11-27T19:57:47.711Z,49.50
2017-11-27T20:00:15.233Z,49.40
2017-11-27T20:02:42.725Z,49.50
2017-11-27T20:05:10.236Z,49.20
2017-11-27T20:07:37.731Z,49.00
2017-11-27T20:10:05.230Z,49.30
2017-11-27T20:12:32.768Z,49.50
2017-11-27T20:15:00.251Z,49.50
2017-11-27T20:17:28.614Z,49.50
2017-11-27T20:19:56.130Z,49.60
2017-11-27T20:22:24.413Z,49.30
2017-11-27T20:24:51.913Z,49.30
2017-11-27T20:27:19.405Z,49.40
2017-11-27T20:29:47.065Z,49.40
2017-11-27T20:32:14.593Z,49.30
2017-11-27T20:34:42.893Z,49.20
2017-11-27T20:37:10.391Z,49.10
2017-11-27T20:39:38.683Z,49.00
2017-11-27T20:42:06.967Z,49.00
2017-11-27T20:44:34.613Z,49.00
2017-11-27T20:47:02.161Z,49.50
2017-11-27T20:49:29.695Z,49.00
2017-11-27T20:51:57.206Z,49.00
2017-11-27T20:54:24.709Z,48.40
2017-11-27T20:56:52.216Z,48.50
2017-11-27T20:59:19.896Z,48.80
2017-11-27T21:01:47.380Z,48.40
2017-11-27T21:04:14.879Z,48.30
2017-11-27T21:06:42.352Z,48.60
2017-11-27T21:09:10.619Z,48.80
2017-11-27T21:11:38.119Z,48.80
2017-11-27T21:14:05.821Z,48.60
2017-11-27T21:16:33.448Z,48.80
2017-11-27T21:19:01.701Z,48.90
2017-11-27T21:21:29.222Z,48.90
2017-11-27T21:23:56.736Z,48.70
2017-11-27T21:26:25.084Z,48.80
2017-11-27T21:28:52.687Z,48.90
2017-11-27T21:31:20.187Z,48.60
2017-11-27T21:33:47.682Z,48.70
2017-11-27T21:36:15.935Z,48.80
2017-11-27T21:38:43.421Z,48.60
2017-11-27T21:41:12.300Z,48.90
2017-11-27T21:43:39.783Z,48.80
2017-11-27T21:46:07.323Z,48.60
2017-11-27T21:48:34.813Z,48.40
2017-11-27T21:51:02.297Z,48.70
2017-11-27T21:53:29.799Z,48.80
2017-11-27T21:55:57.283Z,48.70
2017-11-27T21:58:24.782Z,49.10
2017-11-27T22:00:52.245Z,49.20
2017-11-27T22:03:20.757Z,49.30
2017-11-27T22:05:48.248Z,49.20
2017-11-27T22:08:15.768Z,49.00
2017-11-27T22:10:44.067Z,49.20
2017-11-27T22:13:11.547Z,49.30
2017-11-27T22:15:39.031Z,49.20
2017-11-27T22:18:06.558Z,49.10
2017-11-27T22:20:34.026Z,49.40
2017-11-27T22:23:02.277Z,49.30
2017-11-27T22:25:29.779Z,49.30
2017-11-27T22:27:57.279Z,49.10
2017-11-27T22:30:24.774Z,49.50
2017-11-27T22:32:53.023Z,49.30
2017-11-27T22:35:20.554Z,49.30
2017-11-27T22:37:48.815Z,49.40
2017-11-27T22:40:16.359Z,49.40
2017-11-27T22:42:44.627Z,49.30
2017-11-27T22:45:12.143Z,49.40
2017-11-27T22:47:40.501Z,49.20
2017-11-27T22:50:08.076Z,49.20
2017-11-27T22:52:35.560Z,49.00
2017-11-27T22:55:03.057Z,48.70
2017-11-27T22:57:30.545Z,48.90
2017-11-27T22:59:58.794Z,48.70
2017-11-27T23:02:26.279Z,48.90
2017-11-27T23:04:53.754Z,48.90
2017-11-27T23:07:21.371Z,48.60
2017-11-27T23:09:48.856Z,48.70
2017-11-27T23:12:16.447Z,49.00
2017-11-27T23:14:44.764Z,48.90
2017-11-27T23:17:12.262Z,48.80
2017-11-27T23:19:40.547Z,48.80
2017-11-27T23:22:08.959Z,48.90
2017-11-27T23:24:37.228Z,49.20
2017-11-27T23:27:04.700Z,49.20
2017-11-27T23:29:32.935Z,49.20
2017-11-27T23:32:02.297Z,49.20
2017-11-27T23:34:29.787Z,49.20
2017-11-27T23:36:57.267Z,49.20
2017-11-27T23:39:25.534Z,49.20
2017-11-27T23:41:53.813Z,49.20
2017-11-27T23:44:21.295Z,49.20
2017-11-27T23:46:48.780Z,49.30
2017-11-27T23:49:16.272Z,49.40
2017-11-27T23:51:43.762Z,49.20
2017-11-27T23:54:14.824Z,49.70
2017-11-27T23:56:42.318Z,49.30
2017-11-27T23:59:09.789Z,49.30
